createdAt,value
2022-10-03T00:01:34.341Z,12.40
2022-10-03T00:04:39.271Z,12.40
2022-10-03T00:07:36.087Z,12.40
2022-10-03T00:10:15.707Z,12.40
2022-10-03T00:12:53.058Z,12.40
2022-10-03T00:15:42.071Z,12.30
2022-10-03T00:18:35.302Z,12.30
2022-10-03T00:21:27.006Z,12.30
2022-10-03T00:24:12.629Z,12.30
2022-10-03T00:26:52.630Z,12.30
2022-10-03T00:29:42.412Z,12.20
2022-10-03T00:33:03.690Z,12.20
2022-10-03T00:36:07.999Z,12.20
2022-10-03T00:38:52.079Z,12.20
2022-10-03T00:41:28.015Z,12.20
2022-10-03T00:44:52.241Z,12.20
2022-10-03T00:47:43.103Z,12.20
2022-10-03T00:50:44.715Z,12.10
2022-10-03T00:53:14.866Z,12.10
2022-10-03T00:55:53.990Z,12.00
2022-10-03T00:58:22.154Z,12.00
2022-10-03T01:00:57.938Z,12.00
2022-10-03T01:03:38.524Z,12.00
2022-10-03T01:06:16.403Z,12.00
2022-10-03T01:09:06.634Z,12.00
2022-10-03T01:11:53.876Z,12.00
2022-10-03T01:14:49.147Z,12.00
2022-10-03T01:17:31.768Z,12.20
2022-10-03T01:20:26.998Z,12.20
2022-10-03T01:23:24.641Z,12.30
2022-10-03T01:26:12.351Z,12.50
2022-10-03T01:29:04.565Z,12.60
2022-10-03T01:32:03.053Z,12.80
2022-10-03T01:35:05.171Z,12.80
2022-10-03T01:37:41.278Z,12.70
2022-10-03T01:40:37.692Z,12.60
2022-10-03T01:43:22.117Z,12.60
2022-10-03T01:45:49.247Z,12.50
2022-10-03T01:48:36.795Z,12.50
2022-10-03T01:51:11.909Z,12.50
2022-10-03T01:53:57.255Z,12.40
2022-10-03T01:56:35.771Z,12.40
2022-10-03T01:59:22.458Z,12.40
2022-10-03T02:01:58.179Z,12.40
2022-10-03T02:04:34.381Z,12.30
2022-10-03T02:07:25.831Z,12.30
2022-10-03T02:10:06.425Z,12.30
2022-10-03T02:12:59.462Z,12.20
2022-10-03T02:15:41.282Z,12.10
2022-10-03T02:18:37.269Z,12.10
2022-10-03T02:21:20.847Z,12.10
2022-10-03T02:23:50.211Z,12.00
2022-10-03T02:26:48.221Z,12.00
2022-10-03T02:29:24.322Z,12.00
2022-10-03T02:32:10.361Z,12.00
2022-10-03T02:35:03.010Z,12.00
2022-10-03T02:38:05.375Z,12.00
2022-10-03T02:40:44.194Z,11.90
2022-10-03T02:43:17.408Z,11.90
2022-10-03T02:46:06.131Z,11.90
2022-10-03T02:49:02.555Z,11.80
2022-10-03T02:51:54.476Z,11.80
2022-10-03T02:55:04.239Z,11.80
2022-10-03T02:58:00.723Z,11.70
2022-10-03T03:01:01.347Z,11.80
2022-10-03T03:03:57.234Z,11.80
2022-10-03T03:06:53.931Z,11.70
2022-10-03T03:09:39.858Z,11.70
2022-10-03T03:12:25.761Z,11.70
2022-10-03T03:15:20.640Z,11.70
2022-10-03T03:18:13.213Z,11.70
2022-10-03T03:20:59.979Z,11.70
2022-10-03T03:23:36.088Z,11.70
2022-10-03T03:26:12.111Z,11.60
2022-10-03T03:28:57.695Z,11.70
2022-10-03T03:31:44.983Z,11.70
2022-10-03T03:34:25.941Z,11.70
2022-10-03T03:37:24.603Z,11.70
2022-10-03T03:40:02.107Z,11.70
2022-10-03T03:42:40.145Z,11.70
2022-10-03T03:45:19.856Z,11.70
2022-10-03T03:48:12.422Z,11.70
2022-10-03T03:50:58.138Z,11.70
2022-10-03T03:53:50.258Z,11.70
2022-10-03T03:56:52.560Z,11.70
2022-10-03T03:59:41.547Z,11.70
2022-10-03T04:02:27.706Z,11.70
2022-10-03T04:05:13.809Z,11.90
2022-10-03T04:07:58.223Z,11.60
2022-10-03T04:10:38.249Z,11.60
2022-10-03T04:13:18.007Z,11.60
2022-10-03T04:16:10.070Z,11.70
2022-10-03T04:19:02.952Z,11.80
2022-10-03T04:21:45.552Z,11.90
2022-10-03T04:24:31.246Z,11.90
2022-10-03T04:27:01.193Z,12.00
2022-10-03T04:29:41.238Z,12.00
2022-10-03T04:32:26.671Z,12.10
2022-10-03T04:35:16.514Z,12.10
2022-10-03T04:37:50.109Z,12.10
2022-10-03T04:40:53.067Z,12.20
2022-10-03T04:43:44.046Z,12.20
2022-10-03T04:46:46.094Z,12.10
2022-10-03T04:49:16.423Z,12.10
2022-10-03T04:52:02.114Z,12.00
2022-10-03T04:55:02.384Z,12.10
2022-10-03T04:57:45.467Z,12.10
2022-10-03T05:00:25.331Z,12.10
2022-10-03T05:03:05.725Z,12.10
2022-10-03T05:05:42.135Z,12.00
2022-10-03T05:08:21.400Z,12.00
2022-10-03T05:10:57.395Z,12.00
2022-10-03T05:13:38.966Z,11.90
2022-10-03T05:16:19.917Z,11.90
2022-10-03T05:18:53.108Z,11.90
2022-10-03T05:21:20.190Z,11.80
2022-10-03T05:24:02.696Z,11.80
2022-10-03T05:26:48.637Z,11.80
2022-10-03T05:29:31.646Z,11.80
2022-10-03T05:32:27.902Z,11.90
2022-10-03T05:35:22.070Z,12.00
2022-10-03T05:37:58.413Z,12.10
2022-10-03T05:40:28.733Z,12.20
2022-10-03T05:43:01.669Z,12.20
2022-10-03T05:45:51.983Z,12.30
2022-10-03T05:48:50.090Z,12.40
2022-10-03T05:51:39.553Z,12.40
2022-10-03T05:54:45.965Z,12.50
2022-10-03T05:57:40.414Z,12.60
2022-10-03T06:00:23.511Z,12.70
2022-10-03T06:03:06.072Z,12.80
2022-10-03T06:05:49.651Z,12.90
2022-10-03T06:08:36.942Z,13.00
2022-10-03T06:11:40.351Z,13.10
2022-10-03T06:14:24.882Z,13.20
2022-10-03T06:17:29.162Z,13.30
2022-10-03T06:20:15.130Z,13.30
2022-10-03T06:22:45.354Z,13.40
2022-10-03T06:25:31.036Z,13.60
2022-10-03T06:28:07.044Z,13.70
2022-10-03T06:30:52.259Z,13.80
2022-10-03T06:33:40.972Z,13.90
2022-10-03T06:36:08.072Z,14.10
2022-10-03T06:39:12.125Z,14.10
2022-10-03T06:42:16.929Z,14.20
2022-10-03T06:45:21.391Z,14.30
2022-10-03T06:47:57.119Z,14.40
2022-10-03T06:51:12.490Z,14.50
2022-10-03T06:54:24.859Z,14.50
2022-10-03T06:57:10.837Z,14.60
2022-10-03T07:00:07.636Z,14.70
2022-10-03T07:03:04.640Z,14.80
2022-10-03T07:06:13.711Z,14.90
2022-10-03T07:09:02.263Z,15.00
2022-10-03T07:11:40.484Z,15.00
2022-10-03T07:14:42.082Z,14.90
2022-10-03T07:17:19.257Z,14.80
2022-10-03T07:20:23.123Z,14.80
2022-10-03T07:23:22.456Z,14.80
2022-10-03T07:26:30.259Z,14.90
2022-10-03T07:29:07.178Z,14.90
2022-10-03T07:31:42.128Z,15.00
2022-10-03T07:34:54.846Z,15.10
2022-10-03T07:38:22.365Z,15.20
2022-10-03T07:41:15.934Z,15.40
2022-10-03T07:43:56.359Z,15.50
2022-10-03T07:46:29.095Z,15.60
2022-10-03T07:49:18.733Z,15.70
2022-10-03T07:52:15.530Z,15.80
2022-10-03T07:54:54.171Z,15.90
2022-10-03T07:57:40.904Z,15.90
2022-10-03T08:00:47.451Z,16.00
2022-10-03T08:03:42.557Z,16.00
2022-10-03T08:06:33.736Z,16.00
2022-10-03T08:09:11.783Z,16.20
2022-10-03T08:11:50.686Z,16.40
2022-10-03T08:14:26.814Z,16.50
2022-10-03T08:17:19.851Z,16.70
2022-10-03T08:20:12.153Z,16.90
2022-10-03T08:23:20.023Z,17.20
2022-10-03T08:26:04.709Z,17.30
2022-10-03T08:28:47.356Z,17.40
2022-10-03T08:31:42.388Z,17.50
2022-10-03T08:34:25.083Z,17.60
2022-10-03T08:37:35.955Z,17.60
2022-10-03T08:40:24.619Z,17.50
2022-10-03T08:43:12.755Z,17.50
2022-10-03T08:46:04.620Z,17.40
2022-10-03T08:48:58.965Z,17.30
2022-10-03T08:52:00.110Z,17.30
2022-10-03T08:55:05.282Z,17.40
2022-10-03T08:57:55.871Z,17.60
2022-10-03T09:00:29.103Z,18.00
2022-10-03T09:03:32.553Z,18.00
2022-10-03T09:06:26.045Z,18.00
2022-10-03T09:09:18.357Z,17.90
2022-10-03T09:12:16.662Z,18.00
2022-10-03T09:14:49.684Z,18.50
2022-10-03T09:17:41.556Z,18.80
2022-10-03T09:20:55.094Z,19.10
2022-10-03T09:23:25.556Z,19.80
2022-10-03T09:26:29.551Z,20.20
2022-10-03T09:29:15.133Z,20.20
2022-10-03T09:32:00.963Z,20.20
2022-10-03T09:34:51.104Z,20.40
2022-10-03T09:37:58.990Z,20.80
2022-10-03T09:41:00.702Z,21.30
2022-10-03T09:43:33.814Z,21.70
2022-10-03T09:46:46.784Z,22.50
2022-10-03T09:49:27.097Z,22.90
2022-10-03T09:52:34.822Z,23.40
2022-10-03T09:55:18.048Z,24.30
2022-10-03T09:58:09.227Z,24.80
2022-10-03T10:01:05.303Z,25.80
2022-10-03T10:03:47.561Z,26.70
2022-10-03T10:06:26.793Z,28.10
2022-10-03T10:09:07.964Z,31.00
2022-10-03T10:12:05.142Z,31.70
2022-10-03T10:15:17.788Z,32.60
2022-10-03T10:17:50.911Z,32.30
2022-10-03T10:21:03.376Z,30.90
2022-10-03T10:23:48.040Z,29.40
2022-10-03T10:26:28.655Z,30.10
2022-10-03T10:29:15.065Z,29.30
2022-10-03T10:32:23.270Z,28.90
2022-10-03T10:35:28.773Z,29.50
2022-10-03T10:38:04.542Z,30.20
2022-10-03T10:41:09.179Z,30.50
2022-10-03T10:44:10.681Z,32.20
2022-10-03T10:47:17.990Z,34.60
2022-10-03T10:50:27.455Z,35.00
2022-10-03T10:53:09.718Z,35.10
2022-10-03T10:56:27.821Z,35.10
2022-10-03T10:59:13.302Z,34.50
2022-10-03T11:01:58.962Z,33.80
2022-10-03T11:05:04.206Z,31.50
2022-10-03T11:08:07.041Z,28.90
2022-10-03T11:10:45.402Z,28.40
2022-10-03T11:13:35.472Z,30.60
2022-10-03T11:16:21.763Z,32.20
2022-10-03T11:19:10.238Z,31.50
2022-10-03T11:22:00.024Z,29.90
2022-10-03T11:24:47.223Z,28.10
2022-10-03T11:27:26.376Z,27.20
2022-10-03T11:30:27.238Z,26.30
2022-10-03T11:33:15.154Z,25.50
2022-10-03T11:36:11.096Z,24.50
2022-10-03T11:39:07.942Z,24.00
2022-10-03T11:41:35.105Z,23.40
2022-10-03T11:44:17.393Z,23.00
2022-10-03T11:47:08.220Z,22.80
2022-10-03T11:49:47.620Z,22.70
2022-10-03T11:52:23.997Z,22.80
2022-10-03T11:55:04.151Z,23.10
2022-10-03T11:57:36.759Z,23.20
2022-10-03T12:00:20.699Z,23.70
2022-10-03T12:03:03.257Z,25.40
2022-10-03T12:05:52.689Z,28.00
2022-10-03T12:08:46.556Z,29.50
2022-10-03T12:11:29.031Z,29.80
2022-10-03T12:14:23.895Z,29.70
2022-10-03T12:17:15.838Z,30.20
2022-10-03T12:20:05.312Z,30.30
2022-10-03T12:23:19.207Z,29.60
2022-10-03T12:25:48.077Z,27.70
2022-10-03T12:28:25.894Z,25.80
2022-10-03T12:31:02.311Z,24.70
2022-10-03T12:33:52.199Z,24.00
2022-10-03T12:36:40.678Z,23.70
2022-10-03T12:39:45.459Z,25.20
2022-10-03T12:42:26.118Z,26.90
2022-10-03T12:45:24.376Z,26.00
2022-10-03T12:48:07.597Z,24.60
2022-10-03T12:50:44.040Z,23.60
2022-10-03T12:53:19.795Z,22.90
2022-10-03T12:56:08.101Z,22.70
2022-10-03T12:58:40.990Z,22.80
2022-10-03T13:01:36.011Z,23.30
2022-10-03T13:04:32.440Z,23.40
2022-10-03T13:07:12.728Z,22.90
2022-10-03T13:10:18.239Z,22.60
2022-10-03T13:12:53.002Z,22.70
2022-10-03T13:15:56.812Z,24.10
2022-10-03T13:18:57.248Z,24.70
2022-10-03T13:21:45.994Z,23.60
2022-10-03T13:24:34.389Z,22.50
2022-10-03T13:27:16.559Z,21.90
2022-10-03T13:29:54.638Z,21.50
2022-10-03T13:32:21.898Z,21.00
2022-10-03T13:35:36.627Z,20.60
2022-10-03T13:38:19.209Z,20.20
2022-10-03T13:41:25.204Z,20.00
2022-10-03T13:44:00.299Z,19.90
2022-10-03T13:46:41.967Z,19.90
2022-10-03T13:49:25.418Z,20.10
2022-10-03T13:52:05.159Z,20.60
2022-10-03T13:55:01.252Z,21.90
2022-10-03T13:57:35.603Z,24.60
2022-10-03T14:00:12.778Z,24.90
2022-10-03T14:03:01.462Z,24.10
2022-10-03T14:05:52.921Z,23.10
2022-10-03T14:08:50.832Z,22.30
2022-10-03T14:11:24.091Z,21.70
2022-10-03T14:13:59.854Z,21.30
2022-10-03T14:16:32.278Z,21.10
2022-10-03T14:19:20.106Z,21.10
2022-10-03T14:22:05.081Z,21.00
2022-10-03T14:25:09.148Z,20.90
2022-10-03T14:27:46.977Z,20.90
2022-10-03T14:30:23.318Z,20.80
2022-10-03T14:33:07.046Z,20.60
2022-10-03T14:35:52.940Z,20.40
2022-10-03T14:39:02.268Z,19.80
2022-10-03T14:41:32.170Z,19.80
2022-10-03T14:44:12.989Z,19.50
2022-10-03T14:47:08.191Z,19.50
2022-10-03T14:49:54.959Z,19.70
2022-10-03T14:52:27.884Z,20.10
2022-10-03T14:54:57.975Z,20.60
2022-10-03T14:58:08.668Z,21.20
2022-10-03T15:00:45.850Z,22.60
2022-10-03T15:03:28.876Z,23.80
2022-10-03T15:06:21.954Z,23.50
2022-10-03T15:08:53.565Z,22.70
2022-10-03T15:11:30.980Z,21.90
2022-10-03T15:14:04.906Z,21.30
2022-10-03T15:16:54.467Z,20.80
2022-10-03T15:19:33.355Z,20.50
2022-10-03T15:22:11.177Z,20.20
2022-10-03T15:24:40.926Z,20.00
2022-10-03T15:27:20.279Z,19.90
2022-10-03T15:29:56.689Z,20.00
2022-10-03T15:32:47.133Z,19.90
2022-10-03T15:35:21.696Z,19.80
2022-10-03T15:37:49.759Z,19.70
2022-10-03T15:40:25.255Z,19.70
2022-10-03T15:43:03.484Z,19.70
2022-10-03T15:45:33.610Z,19.50
2022-10-03T15:48:04.438Z,19.40
2022-10-03T15:50:37.208Z,19.50
2022-10-03T15:53:35.162Z,19.70
2022-10-03T15:56:17.576Z,20.30
2022-10-03T15:58:55.139Z,21.00
2022-10-03T16:01:25.208Z,21.10
2022-10-03T16:04:06.937Z,20.80
2022-10-03T16:06:49.752Z,20.20
2022-10-03T16:09:35.644Z,19.70
2022-10-03T16:12:30.062Z,19.40
2022-10-03T16:15:21.513Z,19.10
2022-10-03T16:18:00.859Z,18.80
2022-10-03T16:20:42.012Z,18.60
2022-10-03T16:23:23.182Z,18.40
2022-10-03T16:25:58.593Z,18.20
2022-10-03T16:28:34.240Z,18.10
2022-10-03T16:31:26.523Z,17.90
2022-10-03T16:33:58.311Z,17.80
2022-10-03T16:36:26.637Z,17.70
2022-10-03T16:38:59.930Z,17.50
2022-10-03T16:41:34.052Z,17.50
2022-10-03T16:44:19.803Z,17.40
2022-10-03T16:46:48.222Z,17.40
2022-10-03T16:50:13.571Z,17.30
2022-10-03T16:52:42.086Z,17.30
2022-10-03T16:55:32.972Z,17.30
2022-10-03T16:58:22.812Z,17.20
2022-10-03T17:01:27.313Z,17.20
2022-10-03T17:04:21.807Z,17.20
2022-10-03T17:06:51.515Z,17.10
2022-10-03T17:09:43.006Z,17.10
2022-10-03T17:12:18.202Z,17.10
2022-10-03T17:14:46.548Z,17.00
2022-10-03T17:17:46.555Z,17.00
2022-10-03T17:20:22.191Z,16.90
2022-10-03T17:22:59.593Z,16.80
2022-10-03T17:25:49.194Z,16.80
2022-10-03T17:28:37.853Z,16.70
2022-10-03T17:31:28.470Z,16.60
2022-10-03T17:34:23.780Z,16.60
2022-10-03T17:37:06.377Z,16.50
2022-10-03T17:40:05.489Z,16.40
2022-10-03T17:42:32.786Z,16.30
2022-10-03T17:45:18.614Z,16.20
2022-10-03T17:48:00.494Z,16.10
2022-10-03T17:50:52.631Z,16.00
2022-10-03T17:53:26.015Z,16.00
2022-10-03T17:56:06.044Z,16.00
2022-10-03T17:58:33.655Z,15.90
2022-10-03T18:01:11.764Z,15.80
2022-10-03T18:03:53.249Z,15.70
2022-10-03T18:06:29.632Z,15.80
2022-10-03T18:08:57.020Z,15.60
2022-10-03T18:11:29.029Z,15.60
2022-10-03T18:14:05.268Z,15.50
2022-10-03T18:16:38.927Z,15.50
2022-10-03T18:19:30.494Z,15.40
2022-10-03T18:21:58.762Z,15.30
2022-10-03T18:24:42.294Z,15.20
2022-10-03T18:27:15.448Z,15.10
2022-10-03T18:29:55.933Z,15.10
2022-10-03T18:32:29.484Z,15.00
2022-10-03T18:35:15.034Z,15.10
2022-10-03T18:37:45.210Z,15.10
2022-10-03T18:40:26.571Z,15.10
2022-10-03T18:42:54.592Z,15.20
2022-10-03T18:45:36.168Z,15.20
2022-10-03T18:48:16.717Z,15.20
2022-10-03T18:50:55.248Z,15.30
2022-10-03T18:53:33.182Z,15.30
2022-10-03T18:56:11.698Z,15.30
2022-10-03T18:58:46.053Z,15.30
2022-10-03T19:01:55.771Z,15.30
2022-10-03T19:04:43.004Z,15.30
2022-10-03T19:07:21.521Z,15.30
2022-10-03T19:10:17.823Z,15.30
2022-10-03T19:12:53.873Z,15.30
2022-10-03T19:15:34.195Z,15.30
2022-10-03T19:18:27.913Z,15.30
2022-10-03T19:20:59.348Z,15.30
2022-10-03T19:23:42.216Z,15.20
2022-10-03T19:26:18.557Z,15.30
2022-10-03T19:28:49.320Z,15.30
2022-10-03T19:31:23.872Z,15.30
2022-10-03T19:34:02.653Z,15.30
2022-10-03T19:36:36.661Z,15.30
2022-10-03T19:39:04.805Z,15.30
2022-10-03T19:41:42.526Z,15.30
2022-10-03T19:44:16.670Z,15.30
2022-10-03T19:47:05.909Z,15.30
2022-10-03T19:49:50.741Z,15.30
2022-10-03T19:52:29.866Z,15.30
2022-10-03T19:55:14.957Z,15.30
2022-10-03T19:57:59.287Z,15.30
2022-10-03T20:00:32.708Z,15.30
2022-10-03T20:03:28.897Z,15.30
2022-10-03T20:06:08.074Z,15.30
2022-10-03T20:08:44.560Z,15.40
2022-10-03T20:11:44.525Z,15.40
2022-10-03T20:14:27.537Z,15.40
2022-10-03T20:16:57.593Z,15.40
2022-10-03T20:19:34.200Z,15.30
2022-10-03T20:22:04.629Z,15.40
2022-10-03T20:24:38.948Z,15.30
2022-10-03T20:27:33.979Z,15.30
2022-10-03T20:30:07.707Z,15.30
2022-10-03T20:32:38.632Z,15.30
2022-10-03T20:35:06.545Z,15.20
2022-10-03T20:37:48.485Z,15.10
2022-10-03T20:40:36.426Z,15.10
2022-10-03T20:43:28.223Z,15.10
2022-10-03T20:46:07.950Z,15.10
2022-10-03T20:48:40.617Z,15.10
2022-10-03T20:51:21.291Z,15.00
2022-10-03T20:53:53.080Z,15.00
2022-10-03T20:56:28.313Z,15.00
2022-10-03T20:58:58.055Z,15.00
2022-10-03T21:01:31.322Z,15.00
2022-10-03T21:04:24.229Z,15.00
2022-10-03T21:07:17.600Z,15.00
2022-10-03T21:09:49.790Z,15.00
2022-10-03T21:12:24.727Z,15.00
2022-10-03T21:14:57.671Z,15.00
2022-10-03T21:17:26.767Z,15.00
2022-10-03T21:20:04.402Z,15.00
2022-10-03T21:22:33.476Z,15.10
2022-10-03T21:25:04.659Z,15.10
2022-10-03T21:27:33.684Z,15.00
2022-10-03T21:30:20.310Z,15.10
2022-10-03T21:33:11.540Z,15.10
2022-10-03T21:35:43.434Z,15.10
2022-10-03T21:38:27.275Z,15.10
2022-10-03T21:40:54.423Z,15.80
2022-10-03T21:43:24.317Z,15.10
2022-10-03T21:46:21.351Z,15.00
2022-10-03T21:49:19.536Z,15.00
2022-10-03T21:51:49.694Z,15.00
2022-10-03T21:54:35.437Z,15.00
2022-10-03T21:57:26.156Z,15.00
2022-10-03T22:00:01.482Z,15.00
2022-10-03T22:02:51.943Z,15.00
2022-10-03T22:05:42.062Z,15.00
2022-10-03T22:08:26.454Z,14.90
2022-10-03T22:11:17.299Z,14.90
2022-10-03T22:14:07.316Z,14.90
2022-10-03T22:16:48.441Z,14.90
2022-10-03T22:19:19.871Z,14.80
2022-10-03T22:22:22.661Z,14.80
2022-10-03T22:25:04.594Z,14.80
2022-10-03T22:28:00.141Z,14.70
2022-10-03T22:30:29.957Z,14.80
2022-10-03T22:33:22.569Z,14.80
2022-10-03T22:36:11.146Z,14.70
2022-10-03T22:38:40.704Z,14.20
2022-10-03T22:41:15.433Z,14.70
2022-10-03T22:43:43.710Z,14.80
2022-10-03T22:46:14.243Z,14.80
2022-10-03T22:48:50.075Z,14.80
2022-10-03T22:51:20.811Z,14.80
2022-10-03T22:53:54.935Z,14.80
2022-10-03T22:56:40.436Z,14.80
2022-10-03T22:59:19.666Z,14.80
2022-10-03T23:01:50.148Z,14.80
2022-10-03T23:04:31.988Z,14.90
2022-10-03T23:07:19.070Z,14.90
2022-10-03T23:09:46.837Z,14.90
2022-10-03T23:12:15.402Z,14.90
2022-10-03T23:14:48.143Z,14.90
2022-10-03T23:17:38.780Z,14.80
2022-10-03T23:20:45.965Z,14.90
2022-10-03T23:23:24.314Z,14.80
2022-10-03T23:26:22.513Z,14.80
2022-10-03T23:29:12.783Z,14.70
2022-10-03T23:32:03.391Z,14.60
2022-10-03T23:34:36.363Z,14.60
2022-10-03T23:37:15.320Z,14.60
2022-10-03T23:39:54.607Z,14.50
2022-10-03T23:42:43.724Z,14.50
2022-10-03T23:45:15.835Z,14.60
2022-10-03T23:47:55.217Z,14.60
2022-10-03T23:50:26.615Z,14.60
2022-10-03T23:52:56.793Z,14.60
2022-10-03T23:55:31.433Z,14.60
2022-10-03T23:57:59.541Z,14.60
